createdAt,value
2024-04-18T00:02:48.005Z,8.77
2024-04-18T00:08:05.985Z,9.00
2024-04-18T00:13:07.900Z,9.95
2024-04-18T00:18:29.758Z,10.10
2024-04-18T00:23:31.577Z,7.20
2024-04-18T00:28:45.654Z,7.78
2024-04-18T00:33:50.482Z,8.60
2024-04-18T00:39:02.994Z,8.20
2024-04-18T00:44:04.782Z,9.73
2024-04-18T00:49:07.056Z,9.35
2024-04-18T00:54:28.161Z,8.32
2024-04-18T00:59:33.789Z,8.45
2024-04-18T01:04:51.056Z,9.40
2024-04-18T01:10:12.801Z,11.73
2024-04-18T01:15:14.621Z,10.88
2024-04-18T01:20:17.722Z,8.95
2024-04-18T01:25:19.528Z,12.32
2024-04-18T01:30:21.351Z,10.25
2024-04-18T01:35:23.141Z,11.73
2024-04-18T01:40:24.921Z,14.23
2024-04-18T01:45:45.385Z,9.63
2024-04-18T01:50:49.987Z,13.68
2024-04-18T01:56:07.033Z,11.75
2024-04-18T02:01:25.205Z,10.75
2024-04-18T02:06:27.097Z,13.90
2024-04-18T02:11:29.065Z,14.48
2024-04-18T02:16:46.132Z,10.73
2024-04-18T02:21:59.994Z,11.40
2024-04-18T02:27:07.892Z,14.00
2024-04-18T02:32:09.690Z,13.02
2024-04-18T02:37:11.501Z,13.75
2024-04-18T02:42:13.319Z,10.73
2024-04-18T02:47:33.444Z,13.50
2024-04-18T02:52:41.480Z,11.77
2024-04-18T02:58:01.065Z,16.52
2024-04-18T03:03:03.354Z,15.55
2024-04-18T03:08:05.686Z,11.80
2024-04-18T03:13:19.618Z,11.40
2024-04-18T03:18:27.331Z,16.00
2024-04-18T03:23:49.201Z,13.57
2024-04-18T03:29:11.794Z,13.93
2024-04-18T03:34:31.854Z,16.02
2024-04-18T03:39:33.789Z,14.88
2024-04-18T03:44:35.592Z,15.48
2024-04-18T03:49:37.373Z,24.48
2024-04-18T03:54:55.392Z,19.48
2024-04-18T04:00:15.400Z,15.68
2024-04-18T04:05:17.259Z,17.38
2024-04-18T04:10:19.040Z,14.77
2024-04-18T04:15:20.827Z,18.17
2024-04-18T04:20:36.942Z,19.08
2024-04-18T04:25:38.710Z,16.10
2024-04-18T04:30:40.499Z,20.40
2024-04-18T04:35:42.336Z,17.00
2024-04-18T04:40:44.119Z,19.50
2024-04-18T04:45:46.073Z,19.05
2024-04-18T04:50:59.521Z,20.65
2024-04-18T04:56:08.877Z,19.27
2024-04-18T05:01:10.663Z,18.95
2024-04-18T05:06:16.055Z,19.60
2024-04-18T05:11:18.596Z,21.60
2024-04-18T05:16:21.734Z,17.70
2024-04-18T05:21:44.784Z,17.83
2024-04-18T05:27:06.851Z,19.95
2024-04-18T05:32:08.928Z,18.85
2024-04-18T05:37:13.175Z,22.08
2024-04-18T05:42:15.426Z,18.30
2024-04-18T05:47:37.194Z,19.52
2024-04-18T05:52:38.984Z,18.65
2024-04-18T05:57:55.697Z,16.13
2024-04-18T06:03:16.729Z,16.52
2024-04-18T06:08:18.665Z,13.40
2024-04-18T06:13:23.970Z,10.45
2024-04-18T06:18:27.355Z,12.48
2024-04-18T06:23:29.221Z,9.65
2024-04-18T06:28:49.955Z,8.25
2024-04-18T06:33:51.887Z,10.98
2024-04-18T06:38:53.704Z,12.65
2024-04-18T06:43:55.472Z,8.63
2024-04-18T06:48:57.267Z,7.18
2024-04-18T06:53:59.112Z,8.18
2024-04-18T06:59:00.907Z,9.13
2024-04-18T07:04:17.948Z,6.90
2024-04-18T07:09:39.848Z,9.82
2024-04-18T07:14:53.680Z,10.18
2024-04-18T07:20:15.498Z,6.65
2024-04-18T07:25:38.599Z,7.05
2024-04-18T07:31:00.483Z,5.85
2024-04-18T07:36:02.378Z,5.57
2024-04-18T07:41:04.342Z,6.40
2024-04-18T07:46:06.338Z,7.22
2024-04-18T07:51:08.475Z,5.13
2024-04-18T07:56:10.788Z,5.93
2024-04-18T08:01:14.758Z,6.13
2024-04-18T08:06:19.960Z,6.88
2024-04-18T08:11:53.016Z,6.93
2024-04-18T08:16:46.380Z,7.85
2024-04-18T08:21:50.359Z,8.70
2024-04-18T08:26:52.412Z,6.30
2024-04-18T08:31:55.469Z,6.72
2024-04-18T08:36:57.253Z,6.55
2024-04-18T08:42:00.419Z,6.55
2024-04-18T08:47:02.665Z,5.07
2024-04-18T08:52:07.749Z,4.20
2024-04-18T08:57:10.846Z,3.20
2024-04-18T09:02:14.159Z,3.67
2024-04-18T09:07:16.013Z,2.75
2024-04-18T09:12:17.796Z,3.53
2024-04-18T09:17:20.591Z,1.67
2024-04-18T09:22:22.454Z,2.03
2024-04-18T09:27:24.256Z,1.20
2024-04-18T09:32:27.297Z,1.55
2024-04-18T09:37:31.073Z,1.33
2024-04-18T09:42:51.494Z,1.08
2024-04-18T09:47:53.704Z,1.52
2024-04-18T09:52:56.981Z,3.05
2024-04-18T09:57:59.958Z,6.18
2024-04-18T10:03:04.637Z,3.05
2024-04-18T10:08:08.788Z,2.30
2024-04-18T10:13:10.964Z,3.10
2024-04-18T10:18:17.475Z,2.28
2024-04-18T10:23:22.411Z,3.47
2024-04-18T10:28:26.636Z,1.40
2024-04-18T10:33:32.530Z,2.00
2024-04-18T10:38:35.117Z,1.98
2024-04-18T10:43:37.695Z,2.60
2024-04-18T10:48:41.360Z,1.20
2024-04-18T10:53:43.501Z,1.65
2024-04-18T10:58:45.350Z,1.00
2024-04-18T11:03:51.859Z,3.63
2024-04-18T11:08:53.718Z,1.83
2024-04-18T11:13:56.772Z,1.30
2024-04-18T11:18:58.982Z,1.50
2024-04-18T11:24:00.955Z,1.58
2024-04-18T11:29:02.878Z,1.08
2024-04-18T11:34:04.829Z,3.45
2024-04-18T11:39:07.566Z,0.73
2024-04-18T11:44:09.591Z,1.17
2024-04-18T11:49:11.553Z,1.58
2024-04-18T11:54:13.429Z,1.23
2024-04-18T11:59:17.977Z,1.17
2024-04-18T12:04:19.873Z,0.90
2024-04-18T12:09:21.922Z,1.52
2024-04-18T12:14:24.677Z,2.47
2024-04-18T12:19:29.210Z,2.58
2024-04-18T12:24:31.063Z,0.88
2024-04-18T12:29:48.155Z,1.58
2024-04-18T12:34:51.017Z,0.90
2024-04-18T12:39:53.114Z,1.10
2024-04-18T12:45:01.022Z,1.17
2024-04-18T12:50:03.009Z,1.58
2024-04-18T12:55:05.299Z,1.50
2024-04-18T13:00:07.855Z,1.75
2024-04-18T13:05:28.567Z,2.33
2024-04-18T13:10:38.669Z,2.15
2024-04-18T13:16:00.752Z,1.10
2024-04-18T13:21:04.670Z,2.53
2024-04-18T13:26:06.597Z,2.67
2024-04-18T13:31:14.262Z,1.05
2024-04-18T13:36:23.561Z,1.20
2024-04-18T13:41:31.725Z,2.47
2024-04-18T13:46:49.734Z,2.03
2024-04-18T13:52:10.364Z,1.42
2024-04-18T13:57:18.286Z,1.38
2024-04-18T14:02:20.597Z,2.55
2024-04-18T14:07:22.461Z,1.25
2024-04-18T14:12:24.332Z,2.85
2024-04-18T14:17:50.222Z,1.17
2024-04-18T14:22:51.995Z,2.40
2024-04-18T14:27:53.771Z,2.42
2024-04-18T14:33:11.095Z,4.55
2024-04-18T14:38:12.994Z,1.50
2024-04-18T14:43:15.143Z,1.27
2024-04-18T14:48:16.996Z,1.27
2024-04-18T14:53:20.679Z,1.10
2024-04-18T14:58:42.682Z,3.30
2024-04-18T15:03:56.820Z,1.45
2024-04-18T15:08:58.714Z,1.33
2024-04-18T15:14:00.498Z,1.35
2024-04-18T15:19:02.862Z,1.95
2024-04-18T15:24:24.993Z,1.27
2024-04-18T15:29:35.642Z,1.42
2024-04-18T15:34:55.811Z,1.08
2024-04-18T15:40:10.086Z,2.50
2024-04-18T15:45:11.946Z,1.45
2024-04-18T15:50:24.384Z,1.00
2024-04-18T15:55:26.271Z,1.15
2024-04-18T16:00:28.127Z,1.00
2024-04-18T16:05:29.890Z,1.30
2024-04-18T16:10:43.834Z,1.30
2024-04-18T16:16:02.821Z,1.33
2024-04-18T16:21:11.804Z,1.10
2024-04-18T16:26:13.748Z,1.65
2024-04-18T16:31:15.547Z,1.10
2024-04-18T16:36:27.781Z,1.25
2024-04-18T16:41:44.013Z,1.52
2024-04-18T16:46:45.778Z,1.92
2024-04-18T16:51:49.744Z,2.05
2024-04-18T16:56:58.579Z,1.17
2024-04-18T17:02:19.765Z,1.48
2024-04-18T17:07:21.531Z,1.33
2024-04-18T17:12:41.778Z,1.63
2024-04-18T17:18:07.995Z,1.92
2024-04-18T17:23:09.987Z,1.58
2024-04-18T17:28:11.842Z,1.40
2024-04-18T17:33:33.718Z,2.47
2024-04-18T17:38:35.527Z,3.55
2024-04-18T17:43:57.291Z,0.90
2024-04-18T17:49:19.087Z,1.27
2024-04-18T17:54:21.065Z,1.80
2024-04-18T17:59:22.858Z,0.88
2024-04-18T18:04:24.777Z,2.78
2024-04-18T18:09:26.676Z,2.50
2024-04-18T18:14:28.431Z,5.68
2024-04-18T18:19:33.126Z,5.72
2024-04-18T18:24:37.536Z,7.13
2024-04-18T18:29:39.399Z,4.63
2024-04-18T18:34:43.443Z,8.07
2024-04-18T18:39:45.459Z,5.07
2024-04-18T18:44:47.331Z,5.55
2024-04-18T18:49:49.200Z,5.82
2024-04-18T18:54:51.085Z,7.15
2024-04-18T18:59:52.940Z,5.03
2024-04-18T19:04:54.710Z,5.78
2024-04-18T19:09:56.498Z,4.80
2024-04-18T19:14:58.250Z,4.82
2024-04-18T19:20:00.123Z,4.38
2024-04-18T19:25:02.094Z,7.85
2024-04-18T19:30:04.711Z,4.72
2024-04-18T19:35:06.783Z,4.68
2024-04-18T19:40:09.035Z,9.48
2024-04-18T19:45:10.848Z,6.65
2024-04-18T19:50:12.683Z,4.78
2024-04-18T19:55:15.028Z,3.63
2024-04-18T20:00:16.952Z,8.25
2024-04-18T20:05:18.730Z,9.27
2024-04-18T20:10:20.509Z,5.93
2024-04-18T20:15:22.356Z,7.07
2024-04-18T20:20:24.146Z,8.77
2024-04-18T20:25:25.924Z,4.78
2024-04-18T20:30:27.795Z,5.13
2024-04-18T20:35:47.382Z,4.72
2024-04-18T20:40:49.262Z,4.80
2024-04-18T20:45:55.190Z,6.30
2024-04-18T20:50:56.959Z,4.05
2024-04-18T20:55:58.716Z,6.57
2024-04-18T21:01:00.698Z,3.47
2024-04-18T21:06:02.686Z,5.03
2024-04-18T21:11:04.835Z,2.97
2024-04-18T21:16:06.864Z,3.75
2024-04-18T21:21:08.762Z,4.60
2024-04-18T21:26:10.685Z,3.28
2024-04-18T21:31:12.786Z,2.97
2024-04-18T21:36:14.766Z,2.30
2024-04-18T21:41:16.657Z,2.55
2024-04-18T21:46:18.566Z,3.05
2024-04-18T21:51:20.506Z,2.38
2024-04-18T21:56:22.425Z,3.30
2024-04-18T22:01:24.337Z,3.83
2024-04-18T22:06:26.268Z,3.47
2024-04-18T22:11:28.175Z,2.85
2024-04-18T22:16:30.652Z,2.90
2024-04-18T22:21:32.637Z,2.22
2024-04-18T22:26:35.610Z,3.30
2024-04-18T22:31:37.600Z,3.90
2024-04-18T22:36:39.621Z,2.60
2024-04-18T22:41:41.610Z,2.50
2024-04-18T22:46:43.498Z,2.72
2024-04-18T22:51:45.476Z,3.20
2024-04-18T22:56:47.417Z,3.10
2024-04-18T23:01:49.588Z,2.47
2024-04-18T23:06:51.582Z,3.88
2024-04-18T23:11:53.493Z,2.58
2024-04-18T23:16:55.422Z,3.15
2024-04-18T23:21:57.543Z,2.95
2024-04-18T23:27:14.942Z,5.70
2024-04-18T23:32:16.898Z,5.78
2024-04-18T23:37:18.830Z,3.47
2024-04-18T23:42:20.747Z,3.88
2024-04-18T23:47:22.724Z,6.07
2024-04-18T23:52:24.648Z,4.43
2024-04-18T23:57:27.776Z,3.83
